createdAt,value
2023-02-28T00:03:16.460Z,101575.97
2023-02-28T00:07:18.192Z,101574.50
2023-02-28T00:11:19.903Z,101586.84
2023-02-28T00:15:23.730Z,101584.66
2023-02-28T00:19:25.317Z,101587.25
2023-02-28T00:23:27.439Z,101583.78
2023-02-28T00:27:29.145Z,101585.50
2023-02-28T00:31:31.001Z,101579.28
2023-02-28T00:35:32.913Z,101586.28
2023-02-28T00:39:36.121Z,101588.13
2023-02-28T00:43:39.543Z,101584.72
2023-02-28T00:47:41.294Z,101587.56
2023-02-28T00:51:43.054Z,101586.28
2023-02-28T00:55:44.678Z,101584.53
2023-02-28T00:59:46.344Z,101581.13
2023-02-28T01:03:47.888Z,101588.25
2023-02-28T01:07:49.416Z,101590.50
2023-02-28T01:11:51.191Z,101585.47
2023-02-28T01:15:56.694Z,101580.91
2023-02-28T01:19:58.378Z,101583.75
2023-02-28T01:24:00.572Z,101586.13
2023-02-28T01:28:02.626Z,101578.13
2023-02-28T01:32:04.388Z,101581.56
2023-02-28T01:36:09.975Z,101581.13
2023-02-28T01:40:12.709Z,101590.44
2023-02-28T01:44:52.049Z,101584.41
2023-02-28T01:49:29.040Z,101580.41
2023-02-28T01:53:35.943Z,101581.88
2023-02-28T01:57:49.847Z,101572.72
2023-02-28T02:01:51.574Z,101574.66
2023-02-28T02:05:54.397Z,101563.41
2023-02-28T02:10:06.861Z,101566.13
2023-02-28T02:14:30.329Z,101564.19
2023-02-28T02:18:47.566Z,101566.44
2023-02-28T02:23:09.087Z,101558.44
2023-02-28T02:27:10.553Z,101559.19
2023-02-28T02:31:34.457Z,101557.41
2023-02-28T02:35:48.292Z,101563.78
2023-02-28T02:40:01.219Z,101554.44
2023-02-28T02:44:11.545Z,101552.69
2023-02-28T02:48:17.546Z,101549.88
2023-02-28T02:52:24.158Z,101564.72
2023-02-28T02:56:30.505Z,101565.47
2023-02-28T03:00:47.628Z,101558.22
2023-02-28T03:05:03.289Z,101563.66
2023-02-28T03:09:05.800Z,101559.22
2023-02-28T03:13:26.072Z,101553.03
2023-02-28T03:18:02.073Z,101552.75
2023-02-28T03:22:33.814Z,101556.72
2023-02-28T03:26:40.379Z,101555.25
2023-02-28T03:30:56.167Z,101561.78
2023-02-28T03:35:12.866Z,101563.13
2023-02-28T03:39:23.237Z,101554.25
2023-02-28T03:43:30.421Z,101553.06
2023-02-28T03:47:59.376Z,101555.31
2023-02-28T03:52:03.604Z,101556.63
2023-02-28T03:56:12.867Z,101558.41
2023-02-28T04:00:29.345Z,101560.47
2023-02-28T04:04:31.035Z,101560.78
2023-02-28T04:08:32.930Z,101560.03
2023-02-28T04:12:34.432Z,101553.53
2023-02-28T04:16:38.891Z,101560.03
2023-02-28T04:20:40.475Z,101559.31
2023-02-28T04:24:42.435Z,101560.94
2023-02-28T04:28:43.981Z,101566.13
2023-02-28T04:32:45.746Z,101559.44
2023-02-28T04:36:56.846Z,101560.94
2023-02-28T04:41:04.977Z,101559.75
2023-02-28T04:45:07.334Z,101563.16
2023-02-28T04:49:11.647Z,101554.59
2023-02-28T04:53:13.145Z,101554.44
2023-02-28T04:57:15.136Z,101553.66
2023-02-28T05:01:24.145Z,101565.66
2023-02-28T05:05:25.690Z,101566.41
2023-02-28T05:09:27.189Z,101563.47
2023-02-28T05:13:28.875Z,101565.50
2023-02-28T05:17:30.384Z,101566.53
2023-02-28T05:21:34.787Z,101560.41
2023-02-28T05:25:36.381Z,101570.94
2023-02-28T05:29:42.549Z,101581.75
2023-02-28T05:33:44.158Z,101567.34
2023-02-28T05:37:45.795Z,101569.16
2023-02-28T05:41:47.307Z,101577.75
2023-02-28T05:45:49.110Z,101567.75
2023-02-28T05:49:50.728Z,101569.97
2023-02-28T05:53:52.339Z,101573.03
2023-02-28T05:57:53.912Z,101572.75
2023-02-28T06:01:56.400Z,101575.19
2023-02-28T06:05:57.967Z,101584.50
2023-02-28T06:09:59.503Z,101576.50
2023-02-28T06:14:02.087Z,101581.97
2023-02-28T06:18:03.784Z,101582.44
2023-02-28T06:22:05.449Z,101590.41
2023-02-28T06:26:06.987Z,101593.81
2023-02-28T06:30:08.943Z,101601.44
2023-02-28T06:34:12.409Z,101595.97
2023-02-28T06:38:13.961Z,101606.88
2023-02-28T06:42:15.622Z,101614.28
2023-02-28T06:46:17.155Z,101602.41
2023-02-28T06:50:20.454Z,101607.44
2023-02-28T06:54:21.985Z,101614.50
2023-02-28T06:58:23.543Z,101613.75
2023-02-28T07:02:25.075Z,101609.09
2023-02-28T07:06:26.763Z,101608.31
2023-02-28T07:10:28.410Z,101611.19
2023-02-28T07:14:29.998Z,101622.28
2023-02-28T07:18:31.793Z,101624.81
2023-02-28T07:22:33.308Z,101639.00
2023-02-28T07:26:37.698Z,101631.13
2023-02-28T07:30:39.485Z,101636.09
2023-02-28T07:34:40.997Z,101638.53
2023-02-28T07:38:49.031Z,101629.72
2023-02-28T07:42:50.593Z,101642.56
2023-02-28T07:46:53.786Z,101636.50
2023-02-28T07:51:00.230Z,101636.06
2023-02-28T07:55:01.801Z,101640.25
2023-02-28T07:59:03.388Z,101632.34
2023-02-28T08:03:05.024Z,101636.38
2023-02-28T08:07:06.596Z,101631.50
2023-02-28T08:11:08.154Z,101627.25
2023-02-28T08:15:10.097Z,101614.97
2023-02-28T08:19:11.693Z,101627.84
2023-02-28T08:23:13.199Z,101631.81
2023-02-28T08:27:14.795Z,101623.41
2023-02-28T08:31:17.708Z,101624.78
2023-02-28T08:35:19.373Z,101622.88
2023-02-28T08:39:21.074Z,101627.13
2023-02-28T08:43:22.606Z,101628.25
2023-02-28T08:47:24.275Z,101621.44
2023-02-28T08:51:28.842Z,101617.78
2023-02-28T08:55:30.693Z,101619.06
2023-02-28T08:59:33.270Z,101623.59
2023-02-28T09:03:34.837Z,101618.84
2023-02-28T09:07:36.474Z,101618.59
2023-02-28T09:11:38.073Z,101628.22
2023-02-28T09:15:40.060Z,101629.03
2023-02-28T09:19:41.803Z,101624.22
2023-02-28T09:23:44.956Z,101620.03
2023-02-28T09:27:46.675Z,101618.53
2023-02-28T09:31:48.381Z,101611.31
2023-02-28T09:35:50.948Z,101620.19
2023-02-28T09:39:52.928Z,101621.44
2023-02-28T09:44:01.762Z,101612.75
2023-02-28T09:48:11.660Z,101607.91
2023-02-28T09:52:20.333Z,101601.47
2023-02-28T09:56:42.263Z,101607.28
2023-02-28T10:00:44.538Z,101604.75
2023-02-28T10:04:56.195Z,101605.94
2023-02-28T10:09:11.281Z,101600.97
2023-02-28T10:13:35.540Z,101602.59
2023-02-28T10:17:55.227Z,101599.75
2023-02-28T10:22:10.169Z,101596.59
2023-02-28T10:26:19.444Z,101605.22
2023-02-28T10:30:21.256Z,101602.25
2023-02-28T10:34:22.763Z,101604.59
2023-02-28T10:38:28.505Z,101598.72
2023-02-28T10:42:30.972Z,101601.03
2023-02-28T10:46:34.928Z,101582.16
2023-02-28T10:50:45.232Z,101574.75
2023-02-28T10:54:46.940Z,101572.63
2023-02-28T10:59:25.458Z,101573.47
2023-02-28T11:03:36.034Z,101581.56
2023-02-28T11:07:50.582Z,101572.84
2023-02-28T11:11:54.488Z,101574.38
2023-02-28T11:16:03.231Z,101579.19
2023-02-28T11:20:08.193Z,101566.47
2023-02-28T11:24:33.238Z,101570.47
2023-02-28T11:28:37.272Z,101569.31
2023-02-28T11:32:49.708Z,101565.94
2023-02-28T11:36:52.469Z,101563.06
2023-02-28T11:40:56.823Z,101564.25
2023-02-28T11:45:24.481Z,101560.41
2023-02-28T11:49:38.721Z,101553.88
2023-02-28T11:53:46.349Z,101550.91
2023-02-28T11:58:07.687Z,101548.25
2023-02-28T12:02:26.855Z,101540.41
2023-02-28T12:07:04.748Z,101547.81
2023-02-28T12:11:18.001Z,101557.41
2023-02-28T12:15:36.616Z,101548.56
2023-02-28T12:19:56.487Z,101557.25
2023-02-28T12:24:35.707Z,101538.38
2023-02-28T12:28:48.098Z,101525.88
2023-02-28T12:32:56.703Z,101536.31
2023-02-28T12:37:02.278Z,101536.75
2023-02-28T12:41:09.372Z,101529.59
2023-02-28T12:45:23.629Z,101527.44
2023-02-28T12:49:32.541Z,101527.09
2023-02-28T12:54:04.610Z,101521.13
2023-02-28T12:58:30.665Z,101523.34
2023-02-28T13:02:52.137Z,101506.75
2023-02-28T13:07:47.918Z,101525.03
2023-02-28T13:11:54.838Z,101515.56
2023-02-28T13:16:06.526Z,101509.84
2023-02-28T13:20:30.672Z,101509.63
2023-02-28T13:24:35.228Z,101505.84
2023-02-28T13:28:54.103Z,101504.59
2023-02-28T13:33:34.794Z,101508.16
2023-02-28T13:37:43.235Z,101503.81
2023-02-28T13:41:46.534Z,101511.66
2023-02-28T13:46:14.220Z,101511.75
2023-02-28T13:50:27.911Z,101507.34
2023-02-28T13:54:46.296Z,101496.38
2023-02-28T13:59:07.317Z,101512.19
2023-02-28T14:03:17.649Z,101504.50
2023-02-28T14:07:27.202Z,101498.66
2023-02-28T14:11:35.372Z,101503.09
2023-02-28T14:16:01.103Z,101496.59
2023-02-28T14:20:04.495Z,101482.50
2023-02-28T14:24:42.093Z,101502.97
2023-02-28T14:29:21.120Z,101504.22
2023-02-28T14:33:47.784Z,101508.66
2023-02-28T14:37:50.739Z,101503.13
2023-02-28T14:41:53.037Z,101504.22
2023-02-28T14:46:01.892Z,101513.31
2023-02-28T14:50:05.445Z,101510.63
2023-02-28T14:54:07.301Z,101503.78
2023-02-28T14:58:23.924Z,101497.81
2023-02-28T15:02:26.883Z,101497.91
2023-02-28T15:06:30.330Z,101499.00
2023-02-28T15:10:33.288Z,101494.34
2023-02-28T15:14:39.201Z,101496.16
2023-02-28T15:18:53.428Z,101498.91
2023-02-28T15:22:57.387Z,101511.84
2023-02-28T15:27:01.082Z,101512.03
2023-02-28T15:31:20.454Z,101510.66
2023-02-28T15:35:30.569Z,101515.38
2023-02-28T15:39:41.550Z,101525.13
2023-02-28T15:43:43.137Z,101515.53
2023-02-28T15:47:47.141Z,101514.06
2023-02-28T15:51:52.625Z,101527.16
2023-02-28T15:56:06.870Z,101520.34
2023-02-28T16:00:13.792Z,101526.03
2023-02-28T16:04:20.588Z,101526.97
2023-02-28T16:08:22.170Z,101525.94
2023-02-28T16:12:28.799Z,101527.84
2023-02-28T16:16:32.057Z,101532.78
2023-02-28T16:20:33.626Z,101530.63
2023-02-28T16:24:35.197Z,101542.03
2023-02-28T16:28:39.328Z,101549.75
2023-02-28T16:32:41.051Z,101543.81
2023-02-28T16:36:42.665Z,101548.34
2023-02-28T16:40:44.624Z,101558.75
2023-02-28T16:44:46.961Z,101566.47
2023-02-28T16:48:52.334Z,101563.50
2023-02-28T16:52:55.345Z,101579.06
2023-02-28T16:56:56.978Z,101569.34
2023-02-28T17:00:58.645Z,101577.16
2023-02-28T17:05:00.280Z,101583.34
2023-02-28T17:09:02.058Z,101585.53
2023-02-28T17:13:14.444Z,101598.75
2023-02-28T17:17:19.201Z,101593.13
2023-02-28T17:21:20.837Z,101599.28
2023-02-28T17:25:23.516Z,101613.94
2023-02-28T17:29:25.598Z,101608.50
2023-02-28T17:33:27.374Z,101615.75
2023-02-28T17:37:29.148Z,101609.31
2023-02-28T17:41:31.572Z,101619.22
2023-02-28T17:45:35.624Z,101615.81
2023-02-28T17:49:37.444Z,101611.16
2023-02-28T17:53:39.218Z,101619.78
2023-02-28T17:57:42.746Z,101609.38
2023-02-28T18:01:44.508Z,101617.66
2023-02-28T18:05:46.158Z,101619.03
2023-02-28T18:09:47.696Z,101620.22
2023-02-28T18:13:51.743Z,101614.91
2023-02-28T18:17:53.378Z,101619.13
2023-02-28T18:21:55.113Z,101621.38
2023-02-28T18:25:56.719Z,101620.41
2023-02-28T18:29:58.413Z,101615.44
2023-02-28T18:34:00.547Z,101614.88
2023-02-28T18:38:09.201Z,101615.50
2023-02-28T18:42:11.784Z,101617.69
2023-02-28T18:46:15.627Z,101618.09
2023-02-28T18:50:17.485Z,101622.03
2023-02-28T18:54:19.186Z,101621.66
2023-02-28T18:58:20.744Z,101618.25
2023-02-28T19:02:22.287Z,101613.44
2023-02-28T19:06:23.864Z,101610.69
2023-02-28T19:10:25.481Z,101621.84
2023-02-28T19:14:27.065Z,101617.31
2023-02-28T19:18:28.592Z,101614.00
2023-02-28T19:22:30.213Z,101622.91
2023-02-28T19:26:31.968Z,101626.19
2023-02-28T19:30:33.600Z,101624.16
2023-02-28T19:34:35.104Z,101620.38
2023-02-28T19:38:36.780Z,101624.97
2023-02-28T19:42:38.327Z,101617.88
2023-02-28T19:46:39.912Z,101615.84
2023-02-28T19:50:41.925Z,101615.13
2023-02-28T19:54:43.479Z,101621.22
2023-02-28T19:58:45.097Z,101618.69
2023-02-28T20:02:48.482Z,101623.75
2023-02-28T20:06:50.438Z,101625.91
2023-02-28T20:10:52.175Z,101614.16
2023-02-28T20:14:58.045Z,101614.00
2023-02-28T20:19:00.747Z,101614.00
2023-02-28T20:23:02.461Z,101610.59
2023-02-28T20:27:04.374Z,101617.06
2023-02-28T20:31:16.716Z,101617.31
2023-02-28T20:35:18.288Z,101617.16
2023-02-28T20:39:20.068Z,101621.25
2023-02-28T20:43:23.658Z,101613.50
2023-02-28T20:47:25.368Z,101605.38
2023-02-28T20:51:27.052Z,101619.56
2023-02-28T20:55:28.729Z,101616.53
2023-02-28T20:59:30.331Z,101616.91
2023-02-28T21:03:31.917Z,101610.56
2023-02-28T21:07:33.477Z,101608.41
2023-02-28T21:11:36.967Z,101608.56
2023-02-28T21:15:38.644Z,101606.00
2023-02-28T21:19:40.284Z,101607.28
2023-02-28T21:23:42.617Z,101600.81
2023-02-28T21:27:44.184Z,101611.44
2023-02-28T21:31:45.808Z,101610.56
2023-02-28T21:35:47.425Z,101609.78
2023-02-28T21:39:48.963Z,101611.19
2023-02-28T21:43:51.220Z,101606.00
2023-02-28T21:47:52.786Z,101612.56
2023-02-28T21:51:54.367Z,101608.41
2023-02-28T21:55:55.936Z,101606.00
2023-02-28T21:59:58.614Z,101607.25
2023-02-28T22:04:01.527Z,101611.91
2023-02-28T22:08:03.322Z,101606.84
2023-02-28T22:12:08.404Z,101609.53
2023-02-28T22:16:13.364Z,101600.66
2023-02-28T22:20:15.037Z,101611.53
2023-02-28T22:24:20.090Z,101608.50
2023-02-28T22:28:23.167Z,101609.25
2023-02-28T22:32:24.789Z,101606.47
2023-02-28T22:36:27.131Z,101603.56
2023-02-28T22:40:28.742Z,101595.72
2023-02-28T22:44:30.307Z,101597.97
2023-02-28T22:48:32.421Z,101595.31
2023-02-28T22:52:33.998Z,101594.56
2023-02-28T22:56:35.917Z,101592.53
2023-02-28T23:00:38.437Z,101603.00
2023-02-28T23:04:40.066Z,101594.41
2023-02-28T23:08:42.516Z,101597.28
2023-02-28T23:12:50.549Z,101604.34
2023-02-28T23:16:54.240Z,101615.56
2023-02-28T23:20:57.604Z,101615.31
2023-02-28T23:24:59.249Z,101612.66
2023-02-28T23:29:01.118Z,101619.22
2023-02-28T23:33:02.738Z,101621.47
2023-02-28T23:37:04.816Z,101618.81
2023-02-28T23:41:08.235Z,101615.13
2023-02-28T23:45:10.099Z,101625.75
2023-02-28T23:49:11.899Z,101620.81
2023-02-28T23:53:13.726Z,101624.09
2023-02-28T23:57:15.340Z,101619.94
